createdAt,value
2023-09-14T00:00:47.715Z,2.83
2023-09-14T00:03:20.603Z,5.63
2023-09-14T00:05:52.846Z,3.53
2023-09-14T00:08:25.133Z,4.00
2023-09-14T00:10:59.744Z,4.43
2023-09-14T00:13:32.683Z,4.70
2023-09-14T00:16:05.046Z,4.27
2023-09-14T00:18:37.424Z,3.73
2023-09-14T00:21:09.638Z,4.13
2023-09-14T00:23:41.706Z,6.47
2023-09-14T00:26:13.903Z,5.03
2023-09-14T00:28:46.144Z,6.13
2023-09-14T00:31:18.294Z,6.90
2023-09-14T00:33:50.351Z,5.37
2023-09-14T00:36:24.845Z,4.00
2023-09-14T00:38:57.138Z,4.43
2023-09-14T00:41:29.401Z,6.97
2023-09-14T00:44:01.462Z,6.40
2023-09-14T00:46:34.024Z,4.37
2023-09-14T00:49:06.467Z,5.40
2023-09-14T00:51:38.745Z,4.60
2023-09-14T00:54:11.448Z,5.17
2023-09-14T00:56:43.755Z,3.93
2023-09-14T00:59:15.923Z,4.57
2023-09-14T01:01:50.838Z,5.37
2023-09-14T01:04:23.235Z,5.00
2023-09-14T01:06:55.613Z,5.27
2023-09-14T01:09:27.848Z,6.67
2023-09-14T01:12:00.251Z,5.33
2023-09-14T01:14:52.885Z,5.17
2023-09-14T01:17:39.455Z,5.07
2023-09-14T01:21:01.613Z,4.23
2023-09-14T01:24:17.765Z,5.23
2023-09-14T01:26:51.621Z,4.70
2023-09-14T01:29:24.230Z,4.67
2023-09-14T01:31:56.296Z,4.43
2023-09-14T01:34:29.489Z,5.67
2023-09-14T01:37:05.925Z,4.80
2023-09-14T01:39:40.343Z,5.93
2023-09-14T01:42:13.777Z,4.07
2023-09-14T01:44:46.661Z,4.47
2023-09-14T01:47:20.253Z,3.97
2023-09-14T01:49:52.333Z,4.50
2023-09-14T01:52:25.108Z,5.70
2023-09-14T01:54:57.160Z,3.30
2023-09-14T01:57:29.425Z,4.57
2023-09-14T02:00:01.499Z,4.63
2023-09-14T02:02:33.502Z,4.53
2023-09-14T02:05:06.124Z,5.17
2023-09-14T02:07:38.215Z,3.53
2023-09-14T02:10:13.864Z,4.93
2023-09-14T02:12:46.383Z,3.77
2023-09-14T02:15:19.050Z,4.57
2023-09-14T02:17:52.611Z,6.23
2023-09-14T02:20:24.681Z,4.87
2023-09-14T02:22:56.773Z,6.27
2023-09-14T02:25:29.101Z,4.50
2023-09-14T02:28:01.228Z,3.90
2023-09-14T02:30:33.430Z,4.40
2023-09-14T02:33:07.542Z,5.00
2023-09-14T02:35:46.200Z,4.83
2023-09-14T02:38:19.410Z,3.67
2023-09-14T02:40:51.500Z,4.13
2023-09-14T02:43:24.146Z,4.83
2023-09-14T02:45:57.306Z,4.47
2023-09-14T02:48:29.428Z,5.90
2023-09-14T02:51:01.591Z,3.60
2023-09-14T02:53:35.535Z,3.17
2023-09-14T02:56:11.840Z,3.50
2023-09-14T02:58:44.098Z,6.47
2023-09-14T03:01:16.528Z,4.23
2023-09-14T03:03:51.001Z,4.00
2023-09-14T03:06:23.823Z,4.13
2023-09-14T03:08:55.853Z,6.40
2023-09-14T03:11:27.954Z,4.10
2023-09-14T03:13:59.994Z,5.67
2023-09-14T03:16:32.296Z,4.90
2023-09-14T03:19:04.744Z,4.77
2023-09-14T03:21:36.889Z,6.97
2023-09-14T03:24:08.904Z,4.13
2023-09-14T03:26:40.987Z,6.97
2023-09-14T03:29:14.328Z,4.40
2023-09-14T03:31:46.349Z,6.57
2023-09-14T03:34:18.381Z,6.90
2023-09-14T03:36:51.074Z,4.23
2023-09-14T03:39:23.889Z,4.90
2023-09-14T03:41:55.943Z,5.37
2023-09-14T03:44:28.088Z,5.17
2023-09-14T03:47:00.312Z,5.97
2023-09-14T03:49:32.272Z,4.23
2023-09-14T03:52:04.794Z,7.50
2023-09-14T03:54:37.727Z,6.97
2023-09-14T03:57:15.945Z,5.60
2023-09-14T03:59:48.616Z,4.93
2023-09-14T04:02:20.792Z,4.40
2023-09-14T04:04:52.849Z,6.13
2023-09-14T04:07:24.865Z,4.80
2023-09-14T04:09:56.880Z,4.97
2023-09-14T04:12:29.045Z,3.50
2023-09-14T04:15:01.043Z,4.37
2023-09-14T04:17:33.134Z,3.67
2023-09-14T04:20:10.494Z,3.80
2023-09-14T04:22:42.526Z,3.40
2023-09-14T04:25:14.594Z,4.17
2023-09-14T04:27:48.621Z,4.20
2023-09-14T04:30:23.014Z,4.07
2023-09-14T04:32:55.040Z,5.13
2023-09-14T04:35:27.136Z,3.90
2023-09-14T04:37:59.127Z,4.70
2023-09-14T04:40:31.163Z,4.10
2023-09-14T04:43:03.479Z,3.70
2023-09-14T04:45:35.836Z,3.83
2023-09-14T04:48:08.381Z,5.63
2023-09-14T04:50:43.596Z,3.70
2023-09-14T04:53:15.534Z,3.97
2023-09-14T04:55:47.725Z,3.93
2023-09-14T04:58:20.078Z,3.53
2023-09-14T05:00:52.828Z,5.10
2023-09-14T05:03:24.982Z,4.55
2023-09-14T05:05:57.125Z,5.83
2023-09-14T05:08:34.929Z,3.40
2023-09-14T05:11:07.098Z,4.07
2023-09-14T05:13:39.062Z,3.73
2023-09-14T05:16:11.212Z,4.27
2023-09-14T05:18:43.361Z,4.27
2023-09-14T05:21:15.445Z,3.67
2023-09-14T05:23:47.549Z,4.67
2023-09-14T05:26:19.562Z,4.23
2023-09-14T05:28:51.547Z,4.23
2023-09-14T05:31:24.069Z,8.93
2023-09-14T05:33:56.370Z,6.27
2023-09-14T05:36:28.545Z,6.33
2023-09-14T05:39:00.517Z,4.43
2023-09-14T05:41:32.556Z,4.37
2023-09-14T05:44:10.358Z,4.67
2023-09-14T05:46:42.482Z,9.17
2023-09-14T05:49:14.543Z,5.20
2023-09-14T05:51:49.085Z,5.97
2023-09-14T05:54:27.269Z,6.20
2023-09-14T05:56:59.263Z,5.40
2023-09-14T05:59:33.055Z,5.63
2023-09-14T06:02:05.438Z,5.17
2023-09-14T06:04:37.647Z,6.87
2023-09-14T06:07:09.795Z,5.53
2023-09-14T06:09:42.253Z,5.17
2023-09-14T06:12:14.383Z,5.97
2023-09-14T06:14:46.371Z,6.47
2023-09-14T06:17:18.407Z,5.07
2023-09-14T06:19:50.520Z,9.67
2023-09-14T06:22:22.853Z,6.43
2023-09-14T06:24:54.825Z,5.60
2023-09-14T06:27:26.900Z,6.73
2023-09-14T06:29:58.900Z,8.27
2023-09-14T06:32:31.007Z,8.50
2023-09-14T06:35:03.183Z,6.13
2023-09-14T06:37:35.188Z,7.43
2023-09-14T06:40:08.708Z,7.37
2023-09-14T06:42:40.831Z,6.43
2023-09-14T06:45:12.881Z,8.20
2023-09-14T06:47:44.888Z,8.07
2023-09-14T06:50:16.910Z,10.00
2023-09-14T06:52:48.965Z,7.50
2023-09-14T06:55:21.425Z,9.27
2023-09-14T06:57:53.576Z,7.67
2023-09-14T07:00:25.875Z,7.63
2023-09-14T07:02:58.131Z,8.40
2023-09-14T07:05:32.123Z,7.77
2023-09-14T07:08:04.972Z,10.53
2023-09-14T07:10:37.432Z,9.30
2023-09-14T07:13:09.481Z,7.67
2023-09-14T07:15:42.430Z,7.93
2023-09-14T07:18:29.615Z,7.03
2023-09-14T07:21:05.326Z,9.17
2023-09-14T07:23:37.421Z,7.83
2023-09-14T07:26:12.571Z,7.37
2023-09-14T07:28:44.716Z,8.23
2023-09-14T07:31:17.087Z,9.63
2023-09-14T07:33:50.528Z,9.37
2023-09-14T07:36:22.829Z,7.70
2023-09-14T07:38:54.971Z,8.97
2023-09-14T07:41:27.822Z,8.87
2023-09-14T07:44:00.565Z,8.27
2023-09-14T07:46:34.140Z,7.90
2023-09-14T07:49:07.198Z,8.47
2023-09-14T07:51:39.248Z,9.70
2023-09-14T07:54:14.325Z,8.83
2023-09-14T07:56:48.420Z,8.77
2023-09-14T07:59:20.562Z,8.37
2023-09-14T08:01:52.595Z,10.07
2023-09-14T08:04:24.862Z,8.60
2023-09-14T08:06:57.009Z,7.80
2023-09-14T08:09:29.351Z,8.47
2023-09-14T08:12:01.440Z,10.27
2023-09-14T08:14:33.484Z,7.70
2023-09-14T08:17:08.267Z,8.03
2023-09-14T08:19:40.366Z,9.03
2023-09-14T08:22:12.502Z,12.03
2023-09-14T08:24:44.663Z,9.37
2023-09-14T08:27:17.277Z,7.80
2023-09-14T08:29:49.650Z,9.40
2023-09-14T08:32:22.974Z,9.93
2023-09-14T08:35:01.542Z,8.27
2023-09-14T08:37:33.590Z,9.73
2023-09-14T08:40:09.639Z,9.07
2023-09-14T08:42:53.225Z,10.53
2023-09-14T08:45:31.082Z,9.23
2023-09-14T08:48:05.716Z,10.03
2023-09-14T08:50:40.772Z,11.97
2023-09-14T08:53:15.802Z,11.10
2023-09-14T08:55:48.807Z,12.20
2023-09-14T08:58:24.119Z,11.30
2023-09-14T09:00:58.612Z,10.80
2023-09-14T09:03:30.734Z,9.17
2023-09-14T09:06:03.023Z,11.17
2023-09-14T09:08:35.444Z,11.90
2023-09-14T09:11:08.319Z,12.27
2023-09-14T09:13:47.589Z,11.90
2023-09-14T09:16:20.000Z,10.33
2023-09-14T09:19:08.357Z,9.60
2023-09-14T09:21:44.169Z,10.67
2023-09-14T09:24:27.791Z,9.93
2023-09-14T09:26:59.946Z,7.50
2023-09-14T09:29:32.145Z,9.27
2023-09-14T09:32:04.732Z,8.93
2023-09-14T09:34:36.880Z,8.47
2023-09-14T09:37:08.968Z,9.67
2023-09-14T09:39:42.797Z,8.53
2023-09-14T09:42:15.199Z,8.30
2023-09-14T09:44:47.259Z,8.90
2023-09-14T09:47:21.833Z,8.57
2023-09-14T09:49:54.141Z,7.97
2023-09-14T09:52:27.945Z,5.43
2023-09-14T09:55:00.336Z,6.73
2023-09-14T09:57:38.882Z,5.90
2023-09-14T10:00:14.329Z,5.80
2023-09-14T10:02:48.769Z,21.00
2023-09-14T10:05:48.465Z,7.13
2023-09-14T10:08:25.220Z,6.13
2023-09-14T10:10:58.383Z,6.83
2023-09-14T10:13:35.950Z,7.07
2023-09-14T10:16:09.986Z,5.00
2023-09-14T10:18:48.169Z,5.07
2023-09-14T10:21:30.631Z,5.17
2023-09-14T10:24:07.367Z,6.73
2023-09-14T10:26:44.933Z,5.60
2023-09-14T10:29:29.481Z,5.83
2023-09-14T10:32:05.949Z,5.80
2023-09-14T10:35:05.553Z,6.83
2023-09-14T10:37:46.348Z,6.17
2023-09-14T10:40:48.297Z,5.53
2023-09-14T10:43:20.647Z,5.67
2023-09-14T10:46:00.433Z,6.23
2023-09-14T10:48:35.404Z,4.87
2023-09-14T10:51:13.054Z,4.43
2023-09-14T10:53:46.906Z,4.63
2023-09-14T10:56:33.134Z,5.73
2023-09-14T10:59:10.418Z,5.17
2023-09-14T11:01:54.625Z,6.10
2023-09-14T11:04:27.809Z,4.73
2023-09-14T11:07:01.683Z,8.17
2023-09-14T11:10:05.552Z,5.37
2023-09-14T11:12:38.821Z,7.10
2023-09-14T11:15:25.160Z,4.47
2023-09-14T11:17:58.995Z,4.03
2023-09-14T11:20:43.111Z,4.03
2023-09-14T11:23:15.758Z,4.27
2023-09-14T11:28:26.542Z,4.00
2023-09-14T11:31:00.140Z,4.70
2023-09-14T11:33:37.060Z,5.37
2023-09-14T11:36:13.942Z,5.53
2023-09-14T11:38:52.895Z,3.80
2023-09-14T11:41:59.433Z,5.00
2023-09-14T11:44:45.254Z,4.90
2023-09-14T11:47:21.373Z,4.27
2023-09-14T11:50:01.329Z,3.97
2023-09-14T11:53:47.302Z,3.60
2023-09-14T12:01:12.368Z,5.70
2023-09-14T12:04:02.052Z,3.83
2023-09-14T12:07:03.119Z,4.80
2023-09-14T12:10:17.326Z,3.90
2023-09-14T12:12:49.519Z,4.43
2023-09-14T12:15:26.717Z,4.13
2023-09-14T12:17:59.009Z,4.13
2023-09-14T12:23:59.073Z,4.87
2023-09-14T12:26:39.878Z,4.33
2023-09-14T12:29:33.387Z,3.00
2023-09-14T12:32:18.642Z,3.47
2023-09-14T12:39:29.136Z,3.73
2023-09-14T13:16:33.742Z,6.00
2023-09-14T13:19:07.690Z,4.20
2023-09-14T13:21:40.746Z,5.10
2023-09-14T13:24:12.872Z,4.77
2023-09-14T13:26:44.833Z,4.23
2023-09-14T13:29:18.710Z,5.17
2023-09-14T13:31:50.743Z,3.80
2023-09-14T13:34:22.851Z,3.60
2023-09-14T13:36:55.249Z,3.70
2023-09-14T13:39:27.444Z,4.43
2023-09-14T13:41:59.544Z,3.83
2023-09-14T13:44:31.939Z,3.53
2023-09-14T13:47:04.308Z,3.50
2023-09-14T13:49:36.287Z,3.30
2023-09-14T13:52:08.281Z,6.80
2023-09-14T13:54:40.302Z,4.10
2023-09-14T13:57:13.949Z,6.23
2023-09-14T13:59:50.266Z,3.73
2023-09-14T14:02:22.682Z,3.87
2023-09-14T14:04:54.764Z,3.50
2023-09-14T14:07:27.842Z,3.37
2023-09-14T14:10:00.131Z,3.33
2023-09-14T14:12:35.759Z,4.10
2023-09-14T14:15:12.506Z,3.10
2023-09-14T14:17:45.608Z,3.60
2023-09-14T14:20:17.808Z,3.10
2023-09-14T14:22:50.005Z,3.67
2023-09-14T14:25:22.061Z,3.23
2023-09-14T14:27:54.555Z,3.90
2023-09-14T14:30:26.657Z,4.00
2023-09-14T14:32:58.659Z,2.97
2023-09-14T14:35:31.026Z,3.47
2023-09-14T14:38:03.019Z,4.57
2023-09-14T14:43:10.657Z,4.83
2023-09-14T14:45:42.999Z,3.40
2023-09-14T14:48:15.042Z,4.40
2023-09-14T14:50:47.696Z,3.33
2023-09-14T14:53:20.532Z,4.47
2023-09-14T14:55:52.594Z,4.93
2023-09-14T14:58:24.891Z,4.83
2023-09-14T15:00:57.840Z,4.70
2023-09-14T15:03:30.893Z,3.23
2023-09-14T15:06:03.808Z,3.90
2023-09-14T15:08:43.204Z,3.77
2023-09-14T15:11:15.260Z,3.43
2023-09-14T15:13:48.096Z,3.30
2023-09-14T15:16:20.167Z,4.43
2023-09-14T15:18:52.268Z,3.10
2023-09-14T15:21:24.455Z,3.00
2023-09-14T15:23:56.419Z,2.80
2023-09-14T15:26:28.459Z,3.40
2023-09-14T15:29:00.926Z,3.70
2023-09-14T15:31:32.930Z,3.23
2023-09-14T15:34:05.046Z,3.67
2023-09-14T15:36:37.098Z,3.43
2023-09-14T15:39:09.410Z,3.43
2023-09-14T15:41:41.574Z,4.53
2023-09-14T15:44:13.608Z,5.13
2023-09-14T15:46:45.604Z,3.33
2023-09-14T15:49:19.035Z,3.57
2023-09-14T15:51:51.644Z,3.50
2023-09-14T15:54:23.850Z,4.43
2023-09-14T15:56:55.815Z,5.10
2023-09-14T15:59:28.093Z,3.97
2023-09-14T16:02:02.081Z,3.33
2023-09-14T16:04:34.171Z,3.30
2023-09-14T16:07:06.227Z,3.33
2023-09-14T16:09:38.419Z,4.47
2023-09-14T16:12:10.417Z,3.70
2023-09-14T16:14:42.845Z,3.40
2023-09-14T16:17:14.876Z,3.73
2023-09-14T16:19:47.013Z,3.90
2023-09-14T16:22:19.034Z,5.50
2023-09-14T16:24:51.127Z,3.30
2023-09-14T16:27:23.869Z,3.10
2023-09-14T16:29:55.939Z,3.37
2023-09-14T16:32:27.941Z,3.53
2023-09-14T16:35:00.354Z,3.33
2023-09-14T16:37:32.387Z,3.43
2023-09-14T16:40:05.520Z,4.53
2023-09-14T16:42:37.656Z,3.87
2023-09-14T16:45:10.246Z,3.57
2023-09-14T16:47:42.259Z,3.90
2023-09-14T16:50:15.046Z,3.87
2023-09-14T16:52:47.241Z,4.03
2023-09-14T16:55:21.334Z,4.63
2023-09-14T16:57:53.446Z,5.23
2023-09-14T17:00:25.440Z,4.67
2023-09-14T17:02:57.516Z,4.90
2023-09-14T17:05:29.598Z,3.73
2023-09-14T17:08:01.625Z,4.30
2023-09-14T17:10:33.904Z,5.07
2023-09-14T17:13:06.167Z,4.10
2023-09-14T17:15:38.342Z,4.00
2023-09-14T17:18:10.630Z,4.07
2023-09-14T17:20:42.644Z,5.00
2023-09-14T17:23:14.630Z,4.60
2023-09-14T17:25:48.915Z,5.17
2023-09-14T17:28:21.510Z,4.20
2023-09-14T17:30:53.473Z,4.00
2023-09-14T17:33:26.168Z,3.93
2023-09-14T17:35:58.498Z,5.07
2023-09-14T17:38:30.523Z,4.07
2023-09-14T17:41:02.530Z,4.60
2023-09-14T17:43:35.518Z,4.97
2023-09-14T17:46:08.503Z,4.57
2023-09-14T17:48:41.576Z,4.30
2023-09-14T17:51:16.308Z,6.30
2023-09-14T17:53:48.256Z,4.30
2023-09-14T17:56:20.427Z,4.17
2023-09-14T17:58:52.660Z,4.17
2023-09-14T18:01:25.128Z,4.03
2023-09-14T18:04:02.021Z,5.33
2023-09-14T18:06:34.391Z,4.57
2023-09-14T18:09:06.501Z,4.50
2023-09-14T18:11:38.438Z,4.60
2023-09-14T18:14:10.410Z,4.60
2023-09-14T18:16:42.426Z,4.37
2023-09-14T18:19:18.331Z,4.37
2023-09-14T18:21:50.970Z,4.23
2023-09-14T18:24:23.117Z,4.80
2023-09-14T18:26:55.469Z,4.37
2023-09-14T18:29:27.433Z,4.47
2023-09-14T18:31:59.428Z,5.03
2023-09-14T18:34:31.584Z,4.37
2023-09-14T18:37:05.046Z,4.30
2023-09-14T18:39:37.219Z,6.53
2023-09-14T18:42:09.268Z,4.83
2023-09-14T18:44:42.724Z,4.83
2023-09-14T18:47:14.796Z,6.30
2023-09-14T18:49:47.006Z,5.73
2023-09-14T18:52:18.951Z,4.80
2023-09-14T18:54:50.980Z,5.03
2023-09-14T18:57:23.755Z,5.93
2023-09-14T18:59:56.027Z,5.43
2023-09-14T19:02:27.943Z,4.53
2023-09-14T19:05:00.037Z,4.47
2023-09-14T19:07:32.025Z,4.60
2023-09-14T19:10:05.055Z,4.90
2023-09-14T19:12:37.158Z,4.77
2023-09-14T19:15:10.032Z,5.00
2023-09-14T19:17:42.019Z,6.07
2023-09-14T19:20:14.053Z,7.37
2023-09-14T19:22:46.060Z,4.53
2023-09-14T19:25:18.119Z,5.27
2023-09-14T19:27:50.168Z,4.70
2023-09-14T19:30:22.703Z,6.30
2023-09-14T19:32:54.750Z,5.90
2023-09-14T19:35:26.980Z,6.80
2023-09-14T19:37:59.184Z,5.73
2023-09-14T19:40:31.516Z,5.67
2023-09-14T19:43:03.866Z,6.93
2023-09-14T19:45:36.555Z,5.63
2023-09-14T19:48:08.613Z,5.63
2023-09-14T19:50:40.700Z,5.33
2023-09-14T19:53:13.233Z,4.87
2023-09-14T19:55:45.299Z,5.77
2023-09-14T19:58:19.478Z,8.17
2023-09-14T20:00:51.555Z,5.67
2023-09-14T20:03:23.725Z,7.20
2023-09-14T20:05:55.782Z,5.60
2023-09-14T20:08:29.981Z,5.70
2023-09-14T20:11:04.554Z,5.90
2023-09-14T20:13:38.718Z,6.20
2023-09-14T20:16:10.866Z,5.60
2023-09-14T20:18:43.365Z,7.27
2023-09-14T20:21:15.552Z,5.93
2023-09-14T20:23:47.698Z,7.67
2023-09-14T20:26:19.754Z,8.43
2023-09-14T20:28:51.872Z,7.10
2023-09-14T20:31:24.215Z,8.30
2023-09-14T20:33:56.370Z,8.07
2023-09-14T20:36:31.805Z,9.20
2023-09-14T20:39:11.482Z,7.70
2023-09-14T20:41:43.442Z,8.07
2023-09-14T20:44:16.883Z,8.47
2023-09-14T20:46:50.411Z,8.93
2023-09-14T20:49:22.878Z,8.87
2023-09-14T20:51:55.046Z,10.37
2023-09-14T20:54:27.056Z,9.37
2023-09-14T20:56:59.035Z,8.97
2023-09-14T20:59:31.139Z,9.67
2023-09-14T21:02:04.723Z,8.80
2023-09-14T21:04:36.782Z,9.27
2023-09-14T21:07:08.769Z,9.93
2023-09-14T21:09:40.802Z,9.57
2023-09-14T21:12:13.634Z,9.40
2023-09-14T21:14:46.265Z,10.37
2023-09-14T21:17:18.461Z,9.27
2023-09-14T21:19:59.571Z,9.67
2023-09-14T21:22:31.605Z,10.05
2023-09-14T21:25:03.883Z,9.67
2023-09-14T21:27:37.817Z,9.10
2023-09-14T21:30:10.204Z,10.30
2023-09-14T21:32:42.235Z,8.70
2023-09-14T21:35:14.262Z,9.40
2023-09-14T21:37:46.386Z,8.33
2023-09-14T21:40:18.359Z,8.27
2023-09-14T21:42:50.364Z,8.47
2023-09-14T21:45:22.644Z,8.60
2023-09-14T21:47:54.681Z,9.00
2023-09-14T21:50:26.793Z,9.13
2023-09-14T21:52:59.116Z,9.17
2023-09-14T21:55:32.652Z,9.97
2023-09-14T21:58:05.010Z,9.60
2023-09-14T22:00:37.835Z,10.43
2023-09-14T22:03:10.141Z,10.40
2023-09-14T22:05:42.415Z,10.10
2023-09-14T22:08:14.601Z,10.97
2023-09-14T22:10:47.683Z,10.53
2023-09-14T22:13:19.701Z,10.30
2023-09-14T22:15:51.754Z,11.17
2023-09-14T22:18:23.779Z,10.80
2023-09-14T22:20:56.082Z,11.00
2023-09-14T22:23:28.318Z,10.83
2023-09-14T22:26:05.219Z,11.00
2023-09-14T22:28:37.220Z,11.20
2023-09-14T22:31:14.158Z,10.83
2023-09-14T22:33:46.282Z,11.50
2023-09-14T22:36:18.219Z,10.70
2023-09-14T22:38:50.511Z,11.10
2023-09-14T22:41:22.451Z,10.50
2023-09-14T22:43:54.417Z,10.20
2023-09-14T22:46:27.039Z,10.37
2023-09-14T22:49:00.072Z,10.87
2023-09-14T22:51:32.267Z,11.27
2023-09-14T22:54:04.802Z,10.80
2023-09-14T22:56:36.848Z,10.57
2023-09-14T22:59:08.823Z,10.40
2023-09-14T23:01:40.980Z,10.70
2023-09-14T23:04:13.040Z,10.77
2023-09-14T23:06:45.751Z,10.17
2023-09-14T23:09:17.846Z,11.20
2023-09-14T23:11:52.607Z,10.63
2023-09-14T23:14:31.156Z,10.83
2023-09-14T23:17:04.549Z,10.37
2023-09-14T23:19:36.958Z,10.90
2023-09-14T23:22:08.913Z,10.87
2023-09-14T23:24:41.692Z,11.27
2023-09-14T23:27:13.708Z,10.17
2023-09-14T23:29:46.802Z,10.37
2023-09-14T23:32:20.127Z,10.87
2023-09-14T23:34:52.082Z,10.30
2023-09-14T23:37:24.400Z,10.80
2023-09-14T23:39:58.119Z,10.03
2023-09-14T23:42:30.199Z,10.20
2023-09-14T23:45:02.162Z,10.67
2023-09-14T23:47:34.676Z,10.37
2023-09-14T23:50:11.531Z,10.37
2023-09-14T23:52:43.594Z,10.43
2023-09-14T23:55:15.827Z,10.03
2023-09-14T23:57:47.937Z,10.20
